sensor_id;sensor_type;location;lat;lon;timestamp;pressure;altitude;pressure_sealevel;temperature;humidity
61408;BME280;47274;43.054;25.146;2023-04-29T00:02:12;95700.41;;;5.22;80.67
61408;BME280;47274;43.054;25.146;2023-04-29T00:04:38;95699.00;;;5.18;80.87
61408;BME280;47274;43.054;25.146;2023-04-29T00:07:04;95706.63;;;5.18;81.27
61408;BME280;47274;43.054;25.146;2023-04-29T00:09:29;95688.06;;;5.05;81.45
61408;BME280;47274;43.054;25.146;2023-04-29T00:11:55;95599.63;;;4.49;81.36
61408;BME280;47274;43.054;25.146;2023-04-29T00:14:21;95682.03;;;5.06;81.33
61408;BME280;47274;43.054;25.146;2023-04-29T00:16:47;95687.47;;;5.01;81.96
61408;BME280;47274;43.054;25.146;2023-04-29T00:19:12;95667.84;;;4.79;83.01
61408;BME280;47274;43.054;25.146;2023-04-29T00:21:38;95681.53;;;4.89;83.01
61408;BME280;47274;43.054;25.146;2023-04-29T00:24:04;95688.06;;;4.81;83.67
61408;BME280;47274;43.054;25.146;2023-04-29T00:26:29;95690.59;;;4.81;84.23
61408;BME280;47274;43.054;25.146;2023-04-29T00:28:57;95668.69;;;4.54;84.66
61408;BME280;47274;43.054;25.146;2023-04-29T00:31:24;95683.16;;;4.54;85.83
61408;BME280;47274;43.054;25.146;2023-04-29T00:33:49;95661.34;;;4.25;86.66
61408;BME280;47274;43.054;25.146;2023-04-29T00:36:15;95685.75;;;4.28;87.63
61408;BME280;47274;43.054;25.146;2023-04-29T00:38:41;95694.06;;;4.30;88.02
61408;BME280;47274;43.054;25.146;2023-04-29T00:41:06;95682.41;;;4.27;87.47
61408;BME280;47274;43.054;25.146;2023-04-29T00:43:32;95669.59;;;4.29;87.38
61408;BME280;47274;43.054;25.146;2023-04-29T00:45:58;95678.63;;;4.33;87.52
61408;BME280;47274;43.054;25.146;2023-04-29T00:48:24;95644.09;;;4.18;87.77
61408;BME280;47274;43.054;25.146;2023-04-29T00:50:51;95671.63;;;4.24;88.19
61408;BME280;47274;43.054;25.146;2023-04-29T00:53:17;95666.03;;;4.06;89.13
61408;BME280;47274;43.054;25.146;2023-04-29T00:55:45;95672.84;;;4.06;89.52
61408;BME280;47274;43.054;25.146;2023-04-29T00:58:11;95661.88;;;3.92;90.71
61408;BME280;47274;43.054;25.146;2023-04-29T01:00:37;95668.28;;;3.85;91.63
61408;BME280;47274;43.054;25.146;2023-04-29T01:03:07;95648.69;;;3.62;92.68
61408;BME280;47274;43.054;25.146;2023-04-29T01:05:33;95664.72;;;3.62;93.97
61408;BME280;47274;43.054;25.146;2023-04-29T01:11:07;95624.09;;;3.24;95.21
61408;BME280;47274;43.054;25.146;2023-04-29T01:13:45;95634.56;;;3.32;95.96
61408;BME280;47274;43.054;25.146;2023-04-29T01:16:24;95626.66;;;3.37;95.12
61408;BME280;47274;43.054;25.146;2023-04-29T01:18:57;95637.66;;;3.63;93.17
61408;BME280;47274;43.054;25.146;2023-04-29T01:21:30;95645.84;;;3.79;92.18
61408;BME280;47274;43.054;25.146;2023-04-29T01:23:56;95625.44;;;3.80;91.88
61408;BME280;47274;43.054;25.146;2023-04-29T01:26:27;95619.38;;;3.83;90.77
61408;BME280;47274;43.054;25.146;2023-04-29T01:32:42;95631.88;;;4.36;86.29
61408;BME280;47274;43.054;25.146;2023-04-29T01:37:53;95603.56;;;4.16;86.77
61408;BME280;47274;43.054;25.146;2023-04-29T01:40:31;95630.06;;;4.25;87.22
61408;BME280;47274;43.054;25.146;2023-04-29T01:43:09;95594.47;;;4.01;87.19
61408;BME280;47274;43.054;25.146;2023-04-29T01:45:39;95625.06;;;4.23;86.84
61408;BME280;47274;43.054;25.146;2023-04-29T01:48:09;95626.06;;;4.34;85.53
61408;BME280;47274;43.054;25.146;2023-04-29T01:50:37;95628.59;;;4.46;85.09
61408;BME280;47274;43.054;25.146;2023-04-29T01:53:14;95589.91;;;4.30;84.28
61408;BME280;47274;43.054;25.146;2023-04-29T01:55:40;95628.16;;;4.53;84.59
61408;BME280;47274;43.054;25.146;2023-04-29T01:58:15;95626.03;;;4.46;83.57
61408;BME280;47274;43.054;25.146;2023-04-29T02:00:56;95618.25;;;4.37;83.95
61408;BME280;47274;43.054;25.146;2023-04-29T02:03:22;95601.00;;;4.29;81.87
61408;BME280;47274;43.054;25.146;2023-04-29T02:05:52;95626.03;;;4.46;81.30
61408;BME280;47274;43.054;25.146;2023-04-29T02:08:18;95631.31;;;4.56;81.25
61408;BME280;47274;43.054;25.146;2023-04-29T02:10:56;95631.19;;;4.58;81.65
61408;BME280;47274;43.054;25.146;2023-04-29T02:13:39;95604.09;;;4.45;83.21
61408;BME280;47274;43.054;25.146;2023-04-29T02:16:09;95623.75;;;4.55;82.94
61408;BME280;47274;43.054;25.146;2023-04-29T02:18:36;95623.25;;;4.62;82.40
61408;BME280;47274;43.054;25.146;2023-04-29T02:21:03;95596.88;;;4.52;80.63
61408;BME280;47274;43.054;25.146;2023-04-29T02:23:33;95616.84;;;4.57;81.97
61408;BME280;47274;43.054;25.146;2023-04-29T02:25:59;95620.16;;;4.46;81.72
61408;BME280;47274;43.054;25.146;2023-04-29T02:28:24;95585.59;;;4.43;82.49
61408;BME280;47274;43.054;25.146;2023-04-29T02:30:50;95596.56;;;4.44;81.60
61408;BME280;47274;43.054;25.146;2023-04-29T02:33:16;95612.59;;;4.20;84.73
61408;BME280;47274;43.054;25.146;2023-04-29T02:35:43;95610.97;;;4.07;86.09
61408;BME280;47274;43.054;25.146;2023-04-29T02:38:09;95609.97;;;4.09;86.03
61408;BME280;47274;43.054;25.146;2023-04-29T02:40:43;95595.63;;;4.21;86.05
61408;BME280;47274;43.054;25.146;2023-04-29T02:43:09;95584.16;;;4.15;84.49
61408;BME280;47274;43.054;25.146;2023-04-29T02:45:37;95599.75;;;3.98;85.98
61408;BME280;47274;43.054;25.146;2023-04-29T02:48:04;95562.94;;;3.54;87.22
61408;BME280;47274;43.054;25.146;2023-04-29T02:50:30;95592.97;;;3.73;88.19
61408;BME280;47274;43.054;25.146;2023-04-29T02:52:56;95584.72;;;3.82;87.18
61408;BME280;47274;43.054;25.146;2023-04-29T02:55:22;95578.53;;;3.86;86.21
61408;BME280;47274;43.054;25.146;2023-04-29T02:57:48;95597.91;;;4.00;86.84
61408;BME280;47274;43.054;25.146;2023-04-29T03:00:13;95593.44;;;4.03;86.17
61408;BME280;47274;43.054;25.146;2023-04-29T03:02:39;95597.88;;;4.13;85.65
61408;BME280;47274;43.054;25.146;2023-04-29T03:05:06;95597.91;;;4.00;86.65
61408;BME280;47274;43.054;25.146;2023-04-29T03:07:34;95576.38;;;3.93;85.76
61408;BME280;47274;43.054;25.146;2023-04-29T03:10:00;95607.13;;;4.14;85.64
61408;BME280;47274;43.054;25.146;2023-04-29T03:12:26;95581.16;;;3.97;85.80
61408;BME280;47274;43.054;25.146;2023-04-29T03:14:51;95581.28;;;3.83;86.43
61408;BME280;47274;43.054;25.146;2023-04-29T03:17:17;95598.22;;;3.95;86.74
61408;BME280;47274;43.054;25.146;2023-04-29T03:19:43;95597.69;;;4.03;86.68
61408;BME280;47274;43.054;25.146;2023-04-29T03:22:09;95621.44;;;4.15;86.37
61408;BME280;47274;43.054;25.146;2023-04-29T03:24:38;95595.59;;;3.97;87.04
61408;BME280;47274;43.054;25.146;2023-04-29T03:27:04;95610.19;;;4.06;87.53
61408;BME280;47274;43.054;25.146;2023-04-29T03:29:31;95615.50;;;3.90;88.48
61408;BME280;47274;43.054;25.146;2023-04-29T03:31:57;95608.38;;;3.95;88.81
61408;BME280;47274;43.054;25.146;2023-04-29T03:34:23;95608.16;;;3.98;88.41
61408;BME280;47274;43.054;25.146;2023-04-29T03:37:03;95603.00;;;3.87;88.67
61408;BME280;47274;43.054;25.146;2023-04-29T03:39:29;95631.53;;;3.78;89.80
61408;BME280;47274;43.054;25.146;2023-04-29T03:41:57;95635.59;;;3.42;91.00
61408;BME280;47274;43.054;25.146;2023-04-29T03:44:24;95633.66;;;3.33;92.93
61408;BME280;47274;43.054;25.146;2023-04-29T03:46:50;95630.81;;;3.38;92.98
61408;BME280;47274;43.054;25.146;2023-04-29T03:49:16;95626.53;;;3.25;92.52
61408;BME280;47274;43.054;25.146;2023-04-29T03:51:42;95637.28;;;3.42;92.43
61408;BME280;47274;43.054;25.146;2023-04-29T03:54:14;95646.63;;;3.41;92.48
61408;BME280;47274;43.054;25.146;2023-04-29T03:56:40;95638.59;;;3.35;92.74
61408;BME280;47274;43.054;25.146;2023-04-29T03:59:06;95645.53;;;3.45;93.20
61408;BME280;47274;43.054;25.146;2023-04-29T04:01:32;95642.38;;;3.54;92.21
61408;BME280;47274;43.054;25.146;2023-04-29T04:03:58;95636.41;;;3.55;91.28
61408;BME280;47274;43.054;25.146;2023-04-29T04:06:24;95633.47;;;3.62;90.22
61408;BME280;47274;43.054;25.146;2023-04-29T04:08:51;95646.03;;;3.89;89.51
61408;BME280;47274;43.054;25.146;2023-04-29T04:11:21;95623.13;;;3.90;87.84
61408;BME280;47274;43.054;25.146;2023-04-29T04:13:53;95634.34;;;4.12;88.75
61408;BME280;47274;43.054;25.146;2023-04-29T04:16:19;95643.22;;;4.43;86.56
61408;BME280;47274;43.054;25.146;2023-04-29T04:18:45;95617.38;;;4.62;83.87
61408;BME280;47274;43.054;25.146;2023-04-29T04:21:11;95613.38;;;4.82;81.44
61408;BME280;47274;43.054;25.146;2023-04-29T04:23:40;95619.72;;;5.00;80.58
61408;BME280;47274;43.054;25.146;2023-04-29T04:26:08;95611.88;;;5.03;79.88
61408;BME280;47274;43.054;25.146;2023-04-29T04:28:52;95624.88;;;4.87;81.12
61408;BME280;47274;43.054;25.146;2023-04-29T04:31:27;95612.38;;;4.84;81.74
61408;BME280;47274;43.054;25.146;2023-04-29T04:33:54;95635.84;;;5.12;79.48
61408;BME280;47274;43.054;25.146;2023-04-29T04:36:21;95624.59;;;5.38;76.85
61408;BME280;47274;43.054;25.146;2023-04-29T04:38:47;95626.47;;;5.47;77.28
61408;BME280;47274;43.054;25.146;2023-04-29T04:41:13;95629.50;;;5.17;78.11
61408;BME280;47274;43.054;25.146;2023-04-29T04:43:41;95642.66;;;4.87;79.50
61408;BME280;47274;43.054;25.146;2023-04-29T04:46:15;95613.47;;;4.45;81.30
61408;BME280;47274;43.054;25.146;2023-04-29T04:48:51;95626.22;;;4.56;82.17
61408;BME280;47274;43.054;25.146;2023-04-29T04:51:18;95620.38;;;4.67;83.22
61408;BME280;47274;43.054;25.146;2023-04-29T04:53:44;95636.72;;;4.99;80.56
61408;BME280;47274;43.054;25.146;2023-04-29T04:56:21;95615.47;;;5.12;77.75
61408;BME280;47274;43.054;25.146;2023-04-29T04:58:48;95602.84;;;5.34;77.94
61408;BME280;47274;43.054;25.146;2023-04-29T05:01:14;95611.56;;;5.54;76.51
61408;BME280;47274;43.054;25.146;2023-04-29T05:03:40;95573.81;;;5.48;76.34
61408;BME280;47274;43.054;25.146;2023-04-29T05:06:06;95610.41;;;5.81;72.73
61408;BME280;47274;43.054;25.146;2023-04-29T05:08:31;95638.72;;;6.00;74.89
61408;BME280;47274;43.054;25.146;2023-04-29T05:10:59;95627.94;;;5.97;77.11
61408;BME280;47274;43.054;25.146;2023-04-29T05:13:25;95605.00;;;5.85;75.56
61408;BME280;47274;43.054;25.146;2023-04-29T05:15:52;95624.34;;;6.22;73.10
61408;BME280;47274;43.054;25.146;2023-04-29T05:18:22;95619.81;;;6.36;72.50
61408;BME280;47274;43.054;25.146;2023-04-29T05:20:50;95624.19;;;6.46;72.68
61408;BME280;47274;43.054;25.146;2023-04-29T05:23:16;95626.31;;;6.29;73.82
61408;BME280;47274;43.054;25.146;2023-04-29T05:25:44;95627.03;;;6.09;75.79
61408;BME280;47274;43.054;25.146;2023-04-29T05:28:10;95606.03;;;5.72;78.07
61408;BME280;47274;43.054;25.146;2023-04-29T05:30:39;95630.44;;;5.74;79.06
61408;BME280;47274;43.054;25.146;2023-04-29T05:33:05;95618.88;;;5.81;76.24
61408;BME280;47274;43.054;25.146;2023-04-29T05:35:31;95607.41;;;5.64;78.31
61408;BME280;47274;43.054;25.146;2023-04-29T05:37:58;95624.69;;;5.02;78.50
61408;BME280;47274;43.054;25.146;2023-04-29T05:40:43;95630.53;;;4.67;82.80
61408;BME280;47274;43.054;25.146;2023-04-29T05:43:32;95655.50;;;4.86;79.09
61408;BME280;47274;43.054;25.146;2023-04-29T05:45:58;95629.38;;;4.84;78.87
61408;BME280;47274;43.054;25.146;2023-04-29T05:48:24;95622.16;;;4.78;77.35
61408;BME280;47274;43.054;25.146;2023-04-29T05:50:50;95642.03;;;4.96;77.59
61408;BME280;47274;43.054;25.146;2023-04-29T05:53:16;95626.59;;;5.11;76.03
61408;BME280;47274;43.054;25.146;2023-04-29T05:55:42;95651.78;;;5.38;75.14
61408;BME280;47274;43.054;25.146;2023-04-29T05:58:10;95624.81;;;5.46;72.66
61408;BME280;47274;43.054;25.146;2023-04-29T06:00:36;95640.75;;;5.84;72.27
61408;BME280;47274;43.054;25.146;2023-04-29T06:03:10;95647.06;;;6.02;68.47
61408;BME280;47274;43.054;25.146;2023-04-29T06:05:37;95632.88;;;6.54;70.40
61408;BME280;47274;43.054;25.146;2023-04-29T06:08:18;95632.19;;;6.96;66.98
61408;BME280;47274;43.054;25.146;2023-04-29T06:10:59;95594.94;;;7.04;65.76
61408;BME280;47274;43.054;25.146;2023-04-29T06:13:28;95647.84;;;7.76;65.57
61408;BME280;47274;43.054;25.146;2023-04-29T06:15:55;95647.50;;;8.21;65.75
61408;BME280;47274;43.054;25.146;2023-04-29T06:18:21;95627.41;;;8.38;62.20
61408;BME280;47274;43.054;25.146;2023-04-29T06:20:47;95645.25;;;8.68;65.72
61408;BME280;47274;43.054;25.146;2023-04-29T06:23:13;95626.13;;;8.63;67.11
61408;BME280;47274;43.054;25.146;2023-04-29T06:25:40;95625.38;;;9.30;61.73
61408;BME280;47274;43.054;25.146;2023-04-29T06:28:07;95615.50;;;9.45;58.76
61408;BME280;47274;43.054;25.146;2023-04-29T06:30:33;95627.44;;;9.83;57.33
61408;BME280;47274;43.054;25.146;2023-04-29T06:32:59;95596.50;;;9.94;55.65
61408;BME280;47274;43.054;25.146;2023-04-29T06:35:25;95613.34;;;10.07;54.56
61408;BME280;47274;43.054;25.146;2023-04-29T06:38:04;95639.69;;;9.99;58.53
61408;BME280;47274;43.054;25.146;2023-04-29T06:40:51;95628.63;;;10.63;58.69
61408;BME280;47274;43.054;25.146;2023-04-29T06:43:29;95628.25;;;10.58;53.38
61408;BME280;47274;43.054;25.146;2023-04-29T06:46:34;95615.75;;;10.46;51.18
61408;BME280;47274;43.054;25.146;2023-04-29T06:49:05;95623.09;;;10.58;55.14
61408;BME280;47274;43.054;25.146;2023-04-29T06:51:31;95623.59;;;11.25;54.55
61408;BME280;47274;43.054;25.146;2023-04-29T06:53:58;95585.75;;;10.74;51.49
61408;BME280;47274;43.054;25.146;2023-04-29T06:56:23;95620.66;;;11.02;51.14
61408;BME280;47274;43.054;25.146;2023-04-29T06:58:50;95596.19;;;10.44;47.94
61408;BME280;47274;43.054;25.146;2023-04-29T07:01:15;95620.91;;;10.91;50.09
61408;BME280;47274;43.054;25.146;2023-04-29T07:03:42;95621.97;;;10.71;48.60
61408;BME280;47274;43.054;25.146;2023-04-29T07:06:08;95597.41;;;10.86;51.39
61408;BME280;47274;43.054;25.146;2023-04-29T07:08:33;95596.81;;;10.92;48.28
61408;BME280;47274;43.054;25.146;2023-04-29T07:10:59;95609.03;;;10.62;53.57
61408;BME280;47274;43.054;25.146;2023-04-29T07:13:25;95617.06;;;10.77;50.46
61408;BME280;47274;43.054;25.146;2023-04-29T07:15:51;95600.28;;;11.19;55.84
61408;BME280;47274;43.054;25.146;2023-04-29T07:18:17;95604.28;;;11.65;53.10
61408;BME280;47274;43.054;25.146;2023-04-29T07:20:42;95600.22;;;11.80;55.29
61408;BME280;47274;43.054;25.146;2023-04-29T07:23:09;95603.66;;;11.19;52.48
61408;BME280;47274;43.054;25.146;2023-04-29T07:25:35;95602.25;;;11.25;48.66
61408;BME280;47274;43.054;25.146;2023-04-29T07:28:02;95615.50;;;11.82;55.01
61408;BME280;47274;43.054;25.146;2023-04-29T07:30:29;95605.72;;;12.12;51.66
61408;BME280;47274;43.054;25.146;2023-04-29T07:32:54;95609.00;;;11.96;52.05
61408;BME280;47274;43.054;25.146;2023-04-29T07:35:20;95598.88;;;12.28;52.36
61408;BME280;47274;43.054;25.146;2023-04-29T07:37:46;95618.19;;;12.24;46.73
61408;BME280;47274;43.054;25.146;2023-04-29T07:40:12;95599.13;;;12.51;45.45
61408;BME280;47274;43.054;25.146;2023-04-29T07:42:38;95618.25;;;13.16;48.51
61408;BME280;47274;43.054;25.146;2023-04-29T07:45:06;95612.44;;;13.05;51.24
61408;BME280;47274;43.054;25.146;2023-04-29T07:47:32;95614.84;;;12.91;46.81
61408;BME280;47274;43.054;25.146;2023-04-29T07:49:59;95611.63;;;13.05;43.20
61408;BME280;47274;43.054;25.146;2023-04-29T07:52:24;95620.81;;;13.08;46.84
61408;BME280;47274;43.054;25.146;2023-04-29T07:54:51;95614.44;;;12.61;42.21
61408;BME280;47274;43.054;25.146;2023-04-29T07:57:16;95608.91;;;13.23;43.46
61408;BME280;47274;43.054;25.146;2023-04-29T07:59:43;95590.03;;;13.88;44.43
61408;BME280;47274;43.054;25.146;2023-04-29T08:02:08;95592.94;;;14.32;39.90
61408;BME280;47274;43.054;25.146;2023-04-29T08:04:38;95606.00;;;14.78;39.66
61408;BME280;47274;43.054;25.146;2023-04-29T08:07:08;95600.00;;;15.09;40.42
61408;BME280;47274;43.054;25.146;2023-04-29T08:09:35;95599.03;;;15.10;40.97
61408;BME280;47274;43.054;25.146;2023-04-29T08:12:02;95597.47;;;15.01;39.10
61408;BME280;47274;43.054;25.146;2023-04-29T08:14:28;95585.41;;;15.39;36.94
61408;BME280;47274;43.054;25.146;2023-04-29T08:16:54;95578.47;;;15.16;37.04
61408;BME280;47274;43.054;25.146;2023-04-29T08:19:20;95591.16;;;15.64;40.56
61408;BME280;47274;43.054;25.146;2023-04-29T08:21:47;95592.94;;;15.63;37.53
61408;BME280;47274;43.054;25.146;2023-04-29T08:24:12;95591.19;;;14.72;37.95
61408;BME280;47274;43.054;25.146;2023-04-29T08:26:39;95572.16;;;15.19;39.56
61408;BME280;47274;43.054;25.146;2023-04-29T08:29:05;95585.06;;;16.09;39.47
61408;BME280;47274;43.054;25.146;2023-04-29T08:31:31;95588.22;;;14.83;37.74
61408;BME280;47274;43.054;25.146;2023-04-29T08:33:58;95585.69;;;14.75;39.73
61408;BME280;47274;43.054;25.146;2023-04-29T08:36:24;95597.47;;;15.84;39.33
61408;BME280;47274;43.054;25.146;2023-04-29T08:38:53;95582.63;;;16.89;38.28
61408;BME280;47274;43.054;25.146;2023-04-29T08:41:19;95588.28;;;16.11;38.80
61408;BME280;47274;43.054;25.146;2023-04-29T08:43:45;95588.47;;;14.65;35.40
61408;BME280;47274;43.054;25.146;2023-04-29T08:46:11;95569.91;;;15.77;40.72
61408;BME280;47274;43.054;25.146;2023-04-29T08:48:38;95575.19;;;16.79;36.75
61408;BME280;47274;43.054;25.146;2023-04-29T08:51:05;95575.50;;;17.12;38.55
61408;BME280;47274;43.054;25.146;2023-04-29T08:53:31;95589.34;;;15.87;37.54
61408;BME280;47274;43.054;25.146;2023-04-29T08:56:02;95567.63;;;14.98;36.67
61408;BME280;47274;43.054;25.146;2023-04-29T08:58:29;95588.63;;;15.79;37.99
61408;BME280;47274;43.054;25.146;2023-04-29T09:00:58;95578.88;;;16.55;37.50
61408;BME280;47274;43.054;25.146;2023-04-29T09:05:52;95577.94;;;16.77;38.88
61408;BME280;47274;43.054;25.146;2023-04-29T09:08:21;95583.16;;;17.70;38.00
61408;BME280;47274;43.054;25.146;2023-04-29T09:10:49;95583.75;;;18.35;38.40
61408;BME280;47274;43.054;25.146;2023-04-29T09:13:26;95579.56;;;18.82;38.18
61408;BME280;47274;43.054;25.146;2023-04-29T09:15:52;95575.25;;;19.29;37.96
61408;BME280;47274;43.054;25.146;2023-04-29T09:18:47;95585.47;;;19.57;36.95
61408;BME280;47274;43.054;25.146;2023-04-29T09:21:19;95578.28;;;19.65;36.66
61408;BME280;47274;43.054;25.146;2023-04-29T09:23:47;95586.66;;;20.14;36.88
61408;BME280;47274;43.054;25.146;2023-04-29T09:26:14;95569.41;;;20.13;35.61
61408;BME280;47274;43.054;25.146;2023-04-29T09:28:40;95566.25;;;19.11;34.83
61408;BME280;47274;43.054;25.146;2023-04-29T09:31:10;95569.06;;;19.56;35.69
61408;BME280;47274;43.054;25.146;2023-04-29T09:33:52;95562.25;;;19.82;37.50
61408;BME280;47274;43.054;25.146;2023-04-29T09:36:42;95562.53;;;20.32;34.63
61408;BME280;47274;43.054;25.146;2023-04-29T09:39:20;95559.19;;;20.11;36.31
61408;BME280;47274;43.054;25.146;2023-04-29T09:44:29;95542.13;;;20.16;34.71
61408;BME280;47274;43.054;25.146;2023-04-29T09:47:06;95551.44;;;19.72;36.09
61408;BME280;47274;43.054;25.146;2023-04-29T09:49:40;95554.16;;;20.10;37.08
61408;BME280;47274;43.054;25.146;2023-04-29T09:52:08;95548.16;;;20.68;37.08
61408;BME280;47274;43.054;25.146;2023-04-29T09:54:36;95546.59;;;20.98;35.62
61408;BME280;47274;43.054;25.146;2023-04-29T09:57:04;95540.97;;;20.63;35.33
61408;BME280;47274;43.054;25.146;2023-04-29T09:59:31;95521.09;;;20.17;33.56
61408;BME280;47274;43.054;25.146;2023-04-29T10:02:01;95534.78;;;19.93;36.39
61408;BME280;47274;43.054;25.146;2023-04-29T10:04:34;95523.34;;;20.58;36.54
61408;BME280;47274;43.054;25.146;2023-04-29T10:07:00;95524.00;;;20.86;37.02
61408;BME280;47274;43.054;25.146;2023-04-29T10:09:27;95514.44;;;20.28;34.44
61408;BME280;47274;43.054;25.146;2023-04-29T10:11:53;95523.09;;;20.67;35.66
61408;BME280;47274;43.054;25.146;2023-04-29T10:14:23;95514.91;;;20.11;35.03
61408;BME280;47274;43.054;25.146;2023-04-29T10:17:09;95507.16;;;18.79;36.14
61408;BME280;47274;43.054;25.146;2023-04-29T10:19:38;95524.41;;;19.06;39.48
61408;BME280;47274;43.054;25.146;2023-04-29T10:22:11;95520.97;;;19.79;38.63
61408;BME280;47274;43.054;25.146;2023-04-29T10:24:42;95526.97;;;19.93;36.52
61408;BME280;47274;43.054;25.146;2023-04-29T10:27:09;95517.16;;;20.53;35.93
61408;BME280;47274;43.054;25.146;2023-04-29T10:29:38;95531.84;;;20.34;35.87
61408;BME280;47274;43.054;25.146;2023-04-29T10:32:06;95527.94;;;20.05;34.33
61408;BME280;47274;43.054;25.146;2023-04-29T10:34:36;95525.09;;;20.65;34.81
61408;BME280;47274;43.054;25.146;2023-04-29T10:37:02;95521.16;;;21.19;35.54
61408;BME280;47274;43.054;25.146;2023-04-29T10:39:49;95522.59;;;19.93;30.82
61408;BME280;47274;43.054;25.146;2023-04-29T10:42:45;95520.53;;;20.08;32.42
61408;BME280;47274;43.054;25.146;2023-04-29T10:45:22;95524.75;;;20.54;36.09
61408;BME280;47274;43.054;25.146;2023-04-29T10:53:11;95523.78;;;21.87;33.87
61408;BME280;47274;43.054;25.146;2023-04-29T10:55:39;95517.25;;;21.35;31.10
61408;BME280;47274;43.054;25.146;2023-04-29T10:58:31;95517.94;;;21.48;31.77
61408;BME280;47274;43.054;25.146;2023-04-29T11:00:51;95524.66;;;21.81;34.47
61408;BME280;47274;43.054;25.146;2023-04-29T11:03:55;95521.47;;;21.79;32.27
61408;BME280;47274;43.054;25.146;2023-04-29T11:14:09;95513.50;;;21.24;33.59
61408;BME280;47274;43.054;25.146;2023-04-29T11:16:36;95508.13;;;20.04;32.74
61408;BME280;47274;43.054;25.146;2023-04-29T11:19:06;95505.13;;;20.00;31.91
61408;BME280;47274;43.054;25.146;2023-04-29T11:21:34;95486.19;;;19.13;33.96
61408;BME280;47274;43.054;25.146;2023-04-29T11:24:00;95501.97;;;19.45;37.61
61408;BME280;47274;43.054;25.146;2023-04-29T11:26:28;95502.94;;;19.91;36.61
61408;BME280;47274;43.054;25.146;2023-04-29T11:28:55;95500.91;;;20.44;38.42
61408;BME280;47274;43.054;25.146;2023-04-29T11:31:25;95496.41;;;21.03;36.61
61408;BME280;47274;43.054;25.146;2023-04-29T11:33:53;95490.25;;;20.91;35.93
61408;BME280;47274;43.054;25.146;2023-04-29T11:36:19;95476.38;;;20.65;33.46
61408;BME280;47274;43.054;25.146;2023-04-29T11:38:45;95490.97;;;19.70;33.47
61408;BME280;47274;43.054;25.146;2023-04-29T11:41:11;95476.59;;;18.94;33.70
61408;BME280;47274;43.054;25.146;2023-04-29T11:43:37;95478.00;;;19.03;36.89
61408;BME280;47274;43.054;25.146;2023-04-29T11:46:11;95477.56;;;18.86;36.22
61408;BME280;47274;43.054;25.146;2023-04-29T11:48:45;95470.91;;;19.83;36.93
61408;BME280;47274;43.054;25.146;2023-04-29T11:51:13;95485.06;;;20.52;37.29
61408;BME280;47274;43.054;25.146;2023-04-29T11:53:38;95481.75;;;19.80;33.91
61408;BME280;47274;43.054;25.146;2023-04-29T11:56:05;95467.50;;;19.83;35.33
61408;BME280;47274;43.054;25.146;2023-04-29T11:58:30;95471.81;;;19.04;36.34
61408;BME280;47274;43.054;25.146;2023-04-29T12:00:59;95475.38;;;19.36;38.46
61408;BME280;47274;43.054;25.146;2023-04-29T12:03:25;95455.81;;;20.05;37.39
61408;BME280;47274;43.054;25.146;2023-04-29T12:05:55;95461.56;;;20.59;37.34
61408;BME280;47274;43.054;25.146;2023-04-29T12:08:25;95450.97;;;20.54;32.31
61408;BME280;47274;43.054;25.146;2023-04-29T12:10:52;95450.81;;;20.42;36.25
61408;BME280;47274;43.054;25.146;2023-04-29T12:13:19;95435.88;;;20.24;36.18
61408;BME280;47274;43.054;25.146;2023-04-29T12:15:47;95446.56;;;20.09;37.99
61408;BME280;47274;43.054;25.146;2023-04-29T12:18:14;95446.75;;;20.15;37.25
61408;BME280;47274;43.054;25.146;2023-04-29T12:20:43;95447.88;;;20.32;36.99
61408;BME280;47274;43.054;25.146;2023-04-29T12:23:20;95452.78;;;20.08;38.36
61408;BME280;47274;43.054;25.146;2023-04-29T12:25:55;95454.91;;;20.25;38.25
61408;BME280;47274;43.054;25.146;2023-04-29T12:28:23;95445.56;;;20.10;36.62
61408;BME280;47274;43.054;25.146;2023-04-29T12:30:52;95445.03;;;19.88;36.05
61408;BME280;47274;43.054;25.146;2023-04-29T12:33:23;95422.34;;;19.31;35.95
61408;BME280;47274;43.054;25.146;2023-04-29T12:35:50;95426.34;;;19.27;37.68
61408;BME280;47274;43.054;25.146;2023-04-29T12:38:23;95433.97;;;18.88;34.95
61408;BME280;47274;43.054;25.146;2023-04-29T12:40:51;95441.00;;;18.81;38.97
61408;BME280;47274;43.054;25.146;2023-04-29T12:43:17;95412.97;;;18.90;38.13
61408;BME280;47274;43.054;25.146;2023-04-29T12:45:43;95420.13;;;19.28;38.01
61408;BME280;47274;43.054;25.146;2023-04-29T12:48:10;95440.16;;;19.27;38.47
61408;BME280;47274;43.054;25.146;2023-04-29T12:50:37;95419.97;;;19.03;37.81
61408;BME280;47274;43.054;25.146;2023-04-29T12:53:04;95413.19;;;18.75;38.16
61408;BME280;47274;43.054;25.146;2023-04-29T12:55:34;95425.56;;;18.93;37.91
61408;BME280;47274;43.054;25.146;2023-04-29T12:58:04;95425.78;;;19.05;37.30
61408;BME280;47274;43.054;25.146;2023-04-29T13:00:30;95405.34;;;18.55;37.86
61408;BME280;47274;43.054;25.146;2023-04-29T13:02:57;95388.16;;;18.61;38.19
61408;BME280;47274;43.054;25.146;2023-04-29T13:05:22;95381.78;;;18.63;38.49
61408;BME280;47274;43.054;25.146;2023-04-29T13:07:49;95389.38;;;18.78;36.60
61408;BME280;47274;43.054;25.146;2023-04-29T13:10:15;95395.56;;;18.97;37.61
61408;BME280;47274;43.054;25.146;2023-04-29T13:12:40;95409.16;;;19.06;36.60
61408;BME280;47274;43.054;25.146;2023-04-29T13:15:07;95399.97;;;18.83;38.37
61408;BME280;47274;43.054;25.146;2023-04-29T13:17:36;95394.00;;;17.82;35.41
61408;BME280;47274;43.054;25.146;2023-04-29T13:20:03;95383.00;;;17.80;37.65
61408;BME280;47274;43.054;25.146;2023-04-29T13:22:30;95407.09;;;17.73;39.35
61408;BME280;47274;43.054;25.146;2023-04-29T13:24:55;95394.94;;;17.39;39.14
61408;BME280;47274;43.054;25.146;2023-04-29T13:27:21;95388.69;;;17.62;39.72
61408;BME280;47274;43.054;25.146;2023-04-29T13:29:47;95408.66;;;17.61;37.69
61408;BME280;47274;43.054;25.146;2023-04-29T13:32:13;95404.44;;;17.25;40.21